Time;durP1;ratioP1;P1;durP2;ratioP2;P2;SDS_P1;SDS_P2;PMS_P1;PMS_P2;Temp;Humidity;BMP_temperature;BMP_pressure;BME280_temperature;BME280_humidity;BME280_pressure;Samples;Min_cycle;Max_cycle;Signal;HPM_P1;HPM_P2
2023/11/28 00:00:31;;;;;;;71.10;35.40;;;;;;;0.69;97.31;99224.20;105365;1259;102133;-77
2023/11/28 00:03:33;;;;;;;69.60;35.00;;;;;;;0.67;97.33;99228.00;105258;1265;99195;-78
2023/11/28 00:06:19;;;;;;;70.20;35.60;;;;;;;0.66;97.44;99230.86;105313;1265;108384;-77
2023/11/28 00:09:05;;;;;;;70.40;35.40;;;;;;;0.65;97.66;99229.77;105257;1265;99025;-78
2023/11/28 00:11:52;;;;;;;70.30;36.00;;;;;;;0.65;97.74;99230.11;105253;1260;98019;-77
2023/11/28 00:14:38;;;;;;;70.50;35.40;;;;;;;0.64;97.90;99228.95;105188;1263;102628;-79
2023/11/28 00:17:23;;;;;;;66.70;34.60;;;;;;;0.65;98.03;99228.55;105292;1265;99176;-78
2023/11/28 00:20:10;;;;;;;71.30;35.20;;;;;;;0.65;98.16;99226.22;105280;1260;98800;-78
2023/11/28 00:22:56;;;;;;;66.40;35.50;;;;;;;0.65;98.14;99226.29;105319;1260;98042;-78
2023/11/28 00:25:41;;;;;;;71.10;36.20;;;;;;;0.62;98.15;99221.44;105365;1263;97795;-77
2023/11/28 00:28:27;;;;;;;63.30;33.90;;;;;;;0.60;98.30;99223.72;105160;1265;101436;-77
2023/11/28 00:31:12;;;;;;;69.30;33.60;;;;;;;0.59;98.56;99224.41;105440;1260;100336;-77
2023/11/28 00:33:58;;;;;;;67.90;35.60;;;;;;;0.59;98.76;99221.33;105190;1264;98798;-78
2023/11/28 00:36:43;;;;;;;72.70;33.90;;;;;;;0.61;98.85;99221.79;105308;1265;98007;-78
2023/11/28 00:39:29;;;;;;;69.00;34.70;;;;;;;0.61;98.86;99216.10;105252;1265;97905;-77
2023/11/28 00:42:16;;;;;;;63.00;34.10;;;;;;;0.60;98.89;99216.54;105300;1259;102574;-78
2023/11/28 00:45:04;;;;;;;66.60;34.20;;;;;;;0.60;99.05;99216.90;105309;1261;99751;-78
2023/11/28 00:47:51;;;;;;;64.70;33.30;;;;;;;0.61;99.19;99212.92;105288;1264;98969;-77
2023/11/28 00:50:36;;;;;;;61.50;33.60;;;;;;;0.63;99.25;99209.42;105225;1260;97777;-78
2023/11/28 00:53:23;;;;;;;65.90;34.90;;;;;;;0.64;99.25;99208.75;105219;1266;98482;-78
2023/11/28 00:56:18;;;;;;;71.20;35.40;;;;;;;0.64;99.23;99211.71;105340;1264;101412;-78
2023/11/28 00:59:04;;;;;;;64.00;32.90;;;;;;;0.64;99.14;99212.79;105246;1264;100433;-78
2023/11/28 01:01:50;;;;;;;67.80;36.80;;;;;;;0.65;99.19;99209.79;105293;1266;98020;-77
2023/11/28 01:04:36;;;;;;;66.60;34.90;;;;;;;0.64;99.24;99202.94;105363;1263;97873;-78
2023/11/28 01:07:21;;;;;;;69.20;35.20;;;;;;;0.64;99.06;99195.61;105330;1266;98400;-77
2023/11/28 01:10:07;;;;;;;69.40;35.90;;;;;;;0.61;99.11;99197.77;105449;1260;101346;-78
2023/11/28 01:12:53;;;;;;;66.90;34.80;;;;;;;0.59;99.11;99188.70;105275;1264;100044;-78
2023/11/28 01:15:38;;;;;;;80.10;40.60;;;;;;;0.59;99.19;99184.91;105272;1265;97884;-78
2023/11/28 01:18:24;;;;;;;80.50;39.00;;;;;;;0.58;99.20;99185.70;105352;1264;98077;-78
2023/11/28 01:21:09;;;;;;;72.10;37.40;;;;;;;0.56;99.23;99182.73;105314;1264;98467;-78
2023/11/28 01:23:56;;;;;;;73.10;36.40;;;;;;;0.55;99.20;99177.56;105242;1259;102663;-78
2023/11/28 01:26:41;;;;;;;73.40;37.80;;;;;;;0.53;99.14;99170.44;105300;1260;100318;-78
2023/11/28 01:29:27;;;;;;;84.40;42.30;;;;;;;0.53;99.33;99171.15;105412;1263;98028;-78
2023/11/28 01:32:12;;;;;;;132.10;64.90;;;;;;;0.53;99.45;99168.63;105312;1263;98079;-78
2023/11/28 01:34:58;;;;;;;74.90;38.60;;;;;;;0.54;99.40;99169.62;105337;1265;98863;-78
2023/11/28 01:37:44;;;;;;;72.60;36.00;;;;;;;0.53;99.49;99168.77;105247;1263;101338;-79
2023/11/28 01:40:30;;;;;;;65.90;34.10;;;;;;;0.53;99.39;99165.45;105438;1264;99134;-80
2023/11/28 01:43:26;;;;;;;71.40;36.40;;;;;;;0.52;99.30;99168.59;105324;1264;99107;-78
2023/11/28 01:46:12;;;;;;;67.80;36.20;;;;;;;0.51;99.33;99170.42;105895;1260;97971;-77
2023/11/28 01:48:58;;;;;;;74.30;37.00;;;;;;;0.50;99.26;99170.16;105258;1266;97964;-78
2023/11/28 01:51:44;;;;;;;72.10;34.70;;;;;;;0.50;99.37;99169.14;105218;1265;101419;-77
2023/11/28 01:54:31;;;;;;;70.30;36.90;;;;;;;0.50;99.33;99167.02;105249;1263;99123;-78
2023/11/28 01:57:16;;;;;;;71.30;36.20;;;;;;;0.50;99.49;99166.34;105712;1264;98834;-77
2023/11/28 02:00:03;;;;;;;66.30;34.90;;;;;;;0.50;99.71;99165.74;105173;1260;98030;-77
2023/11/28 02:03:01;;;;;;;70.20;39.70;;;;;;;0.52;99.62;99165.45;105358;1260;97874;-78
2023/11/28 02:05:47;;;;;;;79.70;40.70;;;;;;;0.52;99.58;99161.37;105384;1262;102709;-78
2023/11/28 02:08:34;;;;;;;75.40;39.90;;;;;;;0.53;99.61;99158.48;105355;1264;100424;-77
2023/11/28 02:11:20;;;;;;;81.60;40.40;;;;;;;0.52;99.68;99150.45;105469;1273;98098;-78
2023/11/28 02:14:06;;;;;;;75.80;39.40;;;;;;;0.52;99.56;99148.96;105474;1263;97962;-78
2023/11/28 02:16:53;;;;;;;67.80;35.20;;;;;;;0.51;99.64;99147.70;105440;1265;97964;-77
2023/11/28 02:19:38;;;;;;;69.80;36.20;;;;;;;0.53;99.79;99148.31;105611;1265;101681;-78
2023/11/28 02:22:25;;;;;;;66.80;36.60;;;;;;;0.53;99.69;99145.97;105509;1263;99974;-79
2023/11/28 02:25:11;;;;;;;68.90;35.60;;;;;;;0.52;99.61;99143.23;105477;1263;97980;-79
2023/11/28 02:27:57;;;;;;;67.60;34.60;;;;;;;0.52;99.68;99140.33;105488;1266;97973;-78
2023/11/28 02:30:46;;;;;;;59.70;32.90;;;;;;;0.51;99.60;99141.68;105386;1261;98588;-77
2023/11/28 02:33:31;;;;;;;67.60;34.70;;;;;;;0.50;99.58;99139.50;105573;1273;102479;-78
2023/11/28 02:36:19;;;;;;;64.80;34.90;;;;;;;0.49;99.62;99137.12;105511;1263;99151;-79
2023/11/28 02:39:04;;;;;;;67.30;35.20;;;;;;;0.45;99.38;99128.35;105501;1264;97980;-78
2023/11/28 02:41:50;;;;;;;75.70;37.40;;;;;;;0.43;99.55;99124.77;105510;1264;97974;-79
2023/11/28 02:44:35;;;;;;;67.80;32.70;;;;;;;0.43;99.70;99123.83;105590;1265;97940;-79
2023/11/28 02:47:21;;;;;;;67.80;34.40;;;;;;;0.42;99.57;99119.26;105468;1264;101351;-78
2023/11/28 02:50:06;;;;;;;63.50;34.50;;;;;;;0.38;99.49;99115.59;105327;1265;100192;-78
2023/11/28 02:52:52;;;;;;;66.50;35.10;;;;;;;0.35;99.42;99108.91;105284;1265;98992;-78
2023/11/28 02:55:38;;;;;;;70.00;35.90;;;;;;;0.32;99.45;99106.80;105247;1264;99346;-77
2023/11/28 02:58:23;;;;;;;71.10;36.90;;;;;;;0.30;99.36;99108.18;105357;1266;98525;-77
2023/11/28 03:01:09;;;;;;;75.00;36.90;;;;;;;0.30;99.38;99110.27;105341;1263;101352;-78
2023/11/28 03:03:54;;;;;;;66.40;34.20;;;;;;;0.30;99.39;99112.55;105312;1273;100438;-78
2023/11/28 03:06:40;;;;;;;67.00;36.20;;;;;;;0.29;99.22;99109.71;105361;1264;99182;-79
2023/11/28 03:09:26;;;;;;;69.10;34.10;;;;;;;0.20;98.84;99108.16;105416;1264;99248;-78
2023/11/28 03:12:13;;;;;;;70.70;36.30;;;;;;;0.14;99.19;99097.08;105431;1261;96922;-78
2023/11/28 03:14:58;;;;;;;67.50;35.10;;;;;;;0.14;99.44;99091.52;105239;1261;101485;-79
2023/11/28 03:17:44;;;;;;;66.20;33.30;;;;;;;0.13;99.43;99092.83;105300;1263;99990;-78
2023/11/28 03:20:30;;;;;;;61.40;33.20;;;;;;;0.11;99.22;99090.90;105491;1264;99023;-79
2023/11/28 03:23:15;;;;;;;66.10;34.10;;;;;;;0.10;99.18;99082.44;105421;1266;98560;-78
2023/11/28 03:26:01;;;;;;;76.20;37.80;;;;;;;0.10;99.11;99079.02;105474;1264;98521;-78
2023/11/28 03:28:46;;;;;;;70.50;37.90;;;;;;;0.10;99.16;99075.73;105345;1263;102640;-78
2023/11/28 03:31:32;;;;;;;67.90;36.90;;;;;;;0.10;99.17;99074.67;105235;1264;99216;-78
2023/11/28 03:34:19;;;;;;;68.60;35.90;;;;;;;0.10;99.06;99076.05;105314;1263;98563;-77
2023/11/28 03:37:05;;;;;;;72.00;36.80;;;;;;;0.08;98.88;99072.26;105422;1264;97955;-78
2023/11/28 03:39:50;;;;;;;72.10;39.00;;;;;;;0.05;98.81;99066.73;105409;1264;97896;-78
2023/11/28 03:42:36;;;;;;;74.60;39.10;;;;;;;0.04;98.71;99068.48;105396;1263;101378;-78
2023/11/28 03:45:21;;;;;;;70.50;36.30;;;;;;;0.03;98.69;99070.46;105363;1261;99104;-79
2023/11/28 03:48:07;;;;;;;71.20;36.90;;;;;;;0.02;98.73;99065.86;105327;1261;98998;-78
2023/11/28 03:50:53;;;;;;;71.80;36.80;;;;;;;0.01;98.66;99064.54;105407;1264;97978;-79
2023/11/28 03:53:39;;;;;;;69.70;34.00;;;;;;;-0.03;98.31;99062.66;105322;1263;98440;-78
2023/11/28 03:56:25;;;;;;;70.40;36.60;;;;;;;-0.07;98.32;99059.07;105338;1265;101386;-78
2023/11/28 03:59:11;;;;;;;70.00;35.40;;;;;;;-0.10;98.28;99053.42;105342;1263;100372;-77
2023/11/28 04:01:57;;;;;;;59.90;32.50;;;;;;;-0.13;98.18;99054.10;105374;1261;97871;-78
2023/11/28 04:04:43;;;;;;;68.30;34.80;;;;;;;-0.18;98.04;99051.94;105397;1261;97972;-77
2023/11/28 04:07:28;;;;;;;69.80;35.10;;;;;;;-0.23;97.74;99048.79;105289;1261;97925;-79
2023/11/28 04:10:14;;;;;;;74.40;36.30;;;;;;;-0.26;97.90;99047.02;105325;1264;101403;-78
2023/11/28 04:12:59;;;;;;;70.20;35.10;;;;;;;-0.30;97.83;99040.72;105189;1260;99514;-78
2023/11/28 04:15:46;;;;;;;68.00;34.00;;;;;;;-0.32;97.83;99035.73;105408;1263;97979;-78
2023/11/28 04:18:32;;;;;;;65.10;33.90;;;;;;;-0.38;97.70;99034.75;105330;1264;98472;-78
2023/11/28 04:21:21;;;;;;;61.40;32.20;;;;;;;-0.43;97.48;99033.67;105303;1264;98136;-77
2023/11/28 04:24:07;;;;;;;68.50;33.40;;;;;;;-0.47;97.20;99039.00;105274;1264;102063;-78
2023/11/28 04:26:53;;;;;;;62.80;33.40;;;;;;;-0.50;97.16;99044.98;105474;1264;99077;-79
2023/11/28 04:29:40;;;;;;;64.20;31.60;;;;;;;-0.54;97.06;99039.69;105396;1263;97966;-78
2023/11/28 04:32:26;;;;;;;63.30;32.60;;;;;;;-0.57;97.05;99038.58;105361;1261;98861;-78
2023/11/28 04:35:11;;;;;;;67.70;32.80;;;;;;;-0.60;96.97;99036.98;105541;1263;97961;-78
2023/11/28 04:37:57;;;;;;;69.00;34.20;;;;;;;-0.64;96.80;99037.54;105368;1263;101532;-77
2023/11/28 04:40:43;;;;;;;66.50;32.80;;;;;;;-0.68;96.71;99032.20;105424;1262;100110;-78
2023/11/28 04:43:28;;;;;;;61.10;31.00;;;;;;;-0.77;96.57;99029.55;105239;1261;99309;-78
2023/11/28 04:46:14;;;;;;;67.70;32.10;;;;;;;-0.89;96.54;99026.26;105375;1263;97974;-78
2023/11/28 04:49:00;;;;;;;67.10;33.50;;;;;;;-1.04;96.67;99018.67;105310;1274;98209;-79
2023/11/28 04:51:45;;;;;;;68.60;34.00;;;;;;;-1.17;97.18;99020.87;105449;1262;101488;-77
2023/11/28 04:54:34;;;;;;;67.50;31.80;;;;;;;-1.30;97.66;99020.69;105373;1264;100220;-78
2023/11/28 04:57:19;;;;;;;78.40;35.20;;;;;;;-1.39;98.24;99016.40;105464;1260;97982;-81
2023/11/28 05:00:08;;;;;;;68.20;33.70;;;;;;;-1.42;98.71;99012.16;105427;1261;99073;-77
2023/11/28 05:02:56;;;;;;;70.20;31.70;;;;;;;-1.44;98.97;99006.00;105249;1266;99760;-78
2023/11/28 05:05:42;;;;;;;68.10;32.30;;;;;;;-1.51;99.12;98995.89;105382;1260;102311;-78
2023/11/28 05:08:27;;;;;;;68.00;34.10;;;;;;;-1.59;99.28;98998.04;105471;1260;99357;-78
2023/11/28 05:11:13;;;;;;;64.40;31.00;;;;;;;-1.62;99.73;99000.77;105321;1264;98085;-77
2023/11/28 05:13:59;;;;;;;72.20;33.10;;;;;;;-1.64;99.98;99002.02;105400;1261;97965;-79
2023/11/28 05:16:45;;;;;;;70.60;32.60;;;;;;;-1.70;99.91;98997.31;105366;1264;97970;-79
2023/11/28 05:19:31;;;;;;;66.50;33.50;;;;;;;-1.77;99.94;98998.61;105679;1264;101459;-78
2023/11/28 05:22:17;;;;;;;66.50;31.50;;;;;;;-1.83;100.00;98997.58;105263;1273;100480;-78
2023/11/28 05:25:06;;;;;;;70.20;31.80;;;;;;;-1.89;100.00;98998.52;105451;1261;97983;-77
2023/11/28 05:27:52;;;;;;;68.60;32.10;;;;;;;-1.93;100.00;98994.58;105374;1263;97955;-77
2023/11/28 05:30:38;;;;;;;76.30;32.70;;;;;;;-1.94;100.00;98987.33;105304;1264;97899;-77
2023/11/28 05:33:24;;;;;;;74.30;33.30;;;;;;;-1.94;100.00;98991.48;105454;1261;102710;-79
2023/11/28 05:36:11;;;;;;;74.50;35.80;;;;;;;-1.90;100.00;98994.25;105420;1264;100320;-78
2023/11/28 05:38:58;;;;;;;74.30;34.30;;;;;;;-1.90;100.00;98988.61;105325;1264;97983;-78
2023/11/28 05:41:44;;;;;;;77.20;33.30;;;;;;;-1.91;100.00;98988.04;105196;1263;97966;-78
2023/11/28 05:44:30;;;;;;;76.00;34.60;;;;;;;-1.92;100.00;98983.23;105437;1260;98406;-78
2023/11/28 05:47:18;;;;;;;78.90;34.30;;;;;;;-1.93;100.00;98981.07;105308;1274;102315;-77
2023/11/28 05:50:05;;;;;;;75.10;32.90;;;;;;;-1.94;100.00;98984.49;105665;1263;99538;-78
2023/11/28 05:52:52;;;;;;;71.90;32.90;;;;;;;-1.91;100.00;98982.26;105598;1262;98565;-78
2023/11/28 05:55:38;;;;;;;75.40;36.40;;;;;;;-1.85;100.00;98982.78;105568;1264;97943;-78
2023/11/28 05:58:25;;;;;;;69.70;30.70;;;;;;;-1.79;100.00;98984.63;105840;1261;98521;-78
2023/11/28 06:01:14;;;;;;;63.10;30.90;;;;;;;-1.76;100.00;98987.61;105497;1264;102125;-78
2023/11/28 06:04:00;;;;;;;71.60;33.90;;;;;;;-1.75;100.00;98990.45;105363;1260;99303;-78
2023/11/28 06:06:46;;;;;;;65.70;29.30;;;;;;;-1.73;100.00;98991.58;105333;1259;98069;-78
2023/11/28 06:09:31;;;;;;;69.60;30.30;;;;;;;-1.74;99.89;98986.77;105583;1261;98786;-78
2023/11/28 06:12:17;;;;;;;59.50;27.10;;;;;;;-1.78;99.63;98985.91;105297;1261;97921;-78
2023/11/28 06:15:03;;;;;;;59.50;28.60;;;;;;;-1.86;99.49;98988.58;105521;1262;101362;-78
2023/11/28 06:17:50;;;;;;;59.20;26.20;;;;;;;-1.89;99.69;98986.26;105472;1263;99193;-78
2023/11/28 06:20:37;;;;;;;59.70;25.80;;;;;;;-1.89;99.71;98990.13;105528;1260;97871;-78
2023/11/28 06:23:23;;;;;;;54.00;25.30;;;;;;;-1.91;99.64;98989.11;105383;1261;98558;-78
2023/11/28 06:26:08;;;;;;;49.40;25.20;;;;;;;-1.95;99.69;98992.42;105548;1260;98478;-77
2023/11/28 06:28:54;;;;;;;55.20;25.40;;;;;;;-1.99;99.79;98991.09;105472;1259;103126;-79
2023/11/28 06:31:39;;;;;;;48.20;23.40;;;;;;;-2.02;99.88;98989.52;105412;1263;99674;-79
2023/11/28 06:34:26;;;;;;;57.70;25.90;;;;;;;-2.01;100.00;98992.52;105565;1263;98553;-79
2023/11/28 06:37:13;;;;;;;48.80;24.00;;;;;;;-2.02;100.00;98994.40;105739;1260;97953;-79
2023/11/28 06:39:58;;;;;;;52.10;25.60;;;;;;;-2.03;100.00;98997.67;105764;1259;99206;-77
2023/11/28 06:42:43;;;;;;;50.10;23.50;;;;;;;-2.02;100.00;99001.69;105466;1260;101388;-77
2023/11/28 06:45:31;;;;;;;49.20;23.60;;;;;;;-2.04;100.00;98998.04;105574;1261;100838;-80
2023/11/28 06:48:16;;;;;;;49.40;24.60;;;;;;;-2.05;100.00;98995.55;105518;1259;98001;-78
2023/11/28 06:51:02;;;;;;;45.60;23.20;;;;;;;-2.06;100.00;98995.50;105587;1263;97951;-78
2023/11/28 06:53:47;;;;;;;53.60;25.30;;;;;;;-2.07;100.00;98994.34;105421;1259;98387;-78
2023/11/28 06:56:33;;;;;;;51.70;24.30;;;;;;;-2.05;100.00;98999.39;105666;1263;103184;-79
2023/11/28 06:59:19;;;;;;;56.60;25.70;;;;;;;-2.03;100.00;98996.52;105476;1261;99127;-78
2023/11/28 07:02:04;;;;;;;51.40;25.40;;;;;;;-1.99;100.00;98999.63;105301;1259;97910;-78
2023/11/28 07:04:50;;;;;;;50.90;22.40;;;;;;;-1.95;100.00;99007.64;105386;1264;97966;-78
2023/11/28 07:07:36;;;;;;;43.60;23.40;;;;;;;-1.91;100.00;99016.93;105409;1259;97889;-78
2023/11/28 07:10:21;;;;;;;48.20;23.30;;;;;;;-1.87;100.00;99015.88;105460;1260;101873;-78
2023/11/28 07:13:07;;;;;;;50.60;25.60;;;;;;;-1.86;100.00;99012.39;105559;1259;100403;-77
2023/11/28 07:15:52;;;;;;;48.50;23.40;;;;;;;-1.86;100.00;99011.48;105310;1263;98740;-78
2023/11/28 07:18:38;;;;;;;50.80;25.50;;;;;;;-1.85;100.00;99009.19;105361;1263;97873;-78
2023/11/28 07:21:24;;;;;;;53.90;25.30;;;;;;;-1.86;100.00;99006.07;105390;1261;97890;-77
2023/11/28 07:24:10;;;;;;;49.40;24.30;;;;;;;-1.87;100.00;99000.96;105394;1260;101429;-78
2023/11/28 07:26:55;;;;;;;54.80;25.10;;;;;;;-1.90;100.00;99000.35;105589;1263;99148;-78
2023/11/28 07:29:41;;;;;;;54.90;25.10;;;;;;;-1.89;100.00;99006.41;105591;1258;98679;-81
2023/11/28 07:32:27;;;;;;;53.50;24.40;;;;;;;-1.87;100.00;99007.77;105714;1261;97982;-79
2023/11/28 07:35:12;;;;;;;53.60;25.10;;;;;;;-1.88;100.00;99010.09;105590;1260;98429;-79
2023/11/28 07:37:58;;;;;;;53.10;25.10;;;;;;;-1.86;100.00;99015.38;105452;1264;102606;-79
2023/11/28 07:40:43;;;;;;;55.80;24.90;;;;;;;-1.84;100.00;99020.45;105723;1263;99934;-78
2023/11/28 07:43:31;;;;;;;55.80;27.40;;;;;;;-1.82;100.00;99024.11;105430;1258;98096;-77
2023/11/28 07:46:16;;;;;;;54.80;28.20;;;;;;;-1.80;100.00;99023.58;105595;1263;97973;-78
2023/11/28 07:49:02;;;;;;;58.00;27.10;;;;;;;-1.76;100.00;99025.08;105680;1259;98407;-77
2023/11/28 07:51:48;;;;;;;59.80;28.80;;;;;;;-1.73;100.00;99028.07;105493;1260;143932;-78
2023/11/28 07:54:33;;;;;;;58.40;28.30;;;;;;;-1.72;100.00;99035.48;105463;1259;99093;-78
2023/11/28 07:57:19;;;;;;;53.00;26.10;;;;;;;-1.72;100.00;99037.62;105353;1264;99027;-79
2023/11/28 08:00:07;;;;;;;54.90;27.90;;;;;;;-1.73;100.00;99036.10;105639;1264;97215;-78
2023/11/28 08:02:58;;;;;;;59.70;29.50;;;;;;;-1.71;100.00;99042.25;105879;1260;96684;-78
2023/11/28 08:05:44;;;;;;;53.40;27.50;;;;;;;-1.67;100.00;99042.02;105718;1263;102607;-78
2023/11/28 08:08:30;;;;;;;51.20;25.20;;;;;;;-1.64;100.00;99045.39;105564;1259;99911;-78
2023/11/28 08:11:16;;;;;;;58.90;28.40;;;;;;;-1.57;100.00;99045.59;105448;1259;97983;-78
2023/11/28 08:14:01;;;;;;;67.10;32.50;;;;;;;-1.49;100.00;99040.65;105474;1264;97993;-78
2023/11/28 08:16:47;;;;;;;55.30;27.20;;;;;;;-1.44;100.00;99035.65;105545;1263;98532;-78
2023/11/28 08:19:33;;;;;;;58.00;27.20;;;;;;;-1.41;100.00;99032.83;105585;1259;101328;-78
2023/11/28 08:22:19;;;;;;;60.70;29.00;;;;;;;-1.40;100.00;99031.33;105526;1259;99377;-77
2023/11/28 08:25:05;;;;;;;64.60;28.30;;;;;;;-1.40;100.00;99030.52;105720;1259;98525;-80
2023/11/28 08:27:50;;;;;;;54.30;26.10;;;;;;;-1.40;100.00;99031.19;106594;1261;97848;-80
2023/11/28 08:30:36;;;;;;;65.80;29.30;;;;;;;-1.40;100.00;99029.75;105893;1261;97962;-81
2023/11/28 08:33:22;;;;;;;54.10;26.10;;;;;;;-1.38;100.00;99034.66;105664;1264;101996;-78
2023/11/28 08:36:07;;;;;;;55.70;26.20;;;;;;;-1.36;100.00;99035.40;105865;1263;100437;-77
2023/11/28 08:38:53;;;;;;;61.90;30.40;;;;;;;-1.32;100.00;99036.33;105376;1260;97971;-77
2023/11/28 08:41:38;;;;;;;54.60;26.00;;;;;;;-1.30;100.00;99029.78;105381;1259;97970;-84
2023/11/28 08:44:24;;;;;;;51.00;25.40;;;;;;;-1.29;100.00;99019.44;106535;1261;97971;-79
2023/11/28 08:47:10;;;;;;;54.70;27.40;;;;;;;-1.28;100.00;99018.31;105837;1259;101414;-84
2023/11/28 08:49:59;;;;;;;53.00;26.10;;;;;;;-1.26;100.00;99015.10;105924;1259;99093;-82
2023/11/28 08:52:45;;;;;;;53.50;25.40;;;;;;;-1.25;100.00;99013.42;106146;1259;98359;-82
2023/11/28 08:55:30;;;;;;;58.10;28.40;;;;;;;-1.26;100.00;99014.55;106329;1263;98052;-79
2023/11/28 08:58:15;;;;;;;54.80;27.00;;;;;;;-1.25;100.00;99013.41;105528;1263;98047;-78
2023/11/28 09:01:01;;;;;;;63.10;29.20;;;;;;;-1.24;100.00;99010.20;105531;1258;101368;-77
2023/11/28 09:03:46;;;;;;;56.50;26.10;;;;;;;-1.22;100.00;99008.73;105552;1264;99162;-77
2023/11/28 09:06:32;;;;;;;55.50;27.20;;;;;;;-1.21;100.00;99007.21;105398;1259;97893;-76
2023/11/28 09:09:18;;;;;;;58.90;27.70;;;;;;;-1.19;100.00;99003.12;105389;1263;98062;-78
2023/11/28 09:12:04;;;;;;;61.10;29.70;;;;;;;-1.14;100.00;99003.00;105400;1263;98044;-76
2023/11/28 09:14:50;;;;;;;54.90;25.90;;;;;;;-1.10;100.00;99001.56;105389;1258;102127;-78
2023/11/28 09:17:36;;;;;;;52.40;25.80;;;;;;;-1.08;100.00;98996.79;105627;1259;99974;-77
2023/11/28 09:20:21;;;;;;;59.00;27.70;;;;;;;-1.06;100.00;98997.81;105349;1259;98506;-78
2023/11/28 09:23:07;;;;;;;50.20;25.10;;;;;;;-1.05;100.00;98993.21;105368;1260;97900;-76
2023/11/28 09:25:52;;;;;;;55.00;26.20;;;;;;;-1.06;100.00;98996.91;105415;1259;97999;-77
2023/11/28 09:28:38;;;;;;;55.10;25.70;;;;;;;-1.07;100.00;98995.64;105416;1259;101567;-78
2023/11/28 09:31:26;;;;;;;57.60;27.80;;;;;;;-1.06;100.00;98995.02;105439;1259;99982;-77
2023/11/28 09:34:11;;;;;;;61.40;28.70;;;;;;;-1.02;100.00;98995.84;105371;1259;97967;-77
2023/11/28 09:36:57;;;;;;;61.50;28.10;;;;;;;-0.97;100.00;98994.15;105352;1259;97993;-77
2023/11/28 09:39:43;;;;;;;56.70;27.50;;;;;;;-0.94;100.00;98994.55;105332;1259;99492;-77
2023/11/28 09:42:34;;;;;;;54.90;27.30;;;;;;;-0.93;100.00;98991.44;105322;1259;103089;-76
2023/11/28 09:45:21;;;;;;;58.50;28.70;;;;;;;-0.93;100.00;98987.41;105366;1261;99062;-77
2023/11/28 09:48:11;;;;;;;59.90;27.70;;;;;;;-0.91;100.00;98988.27;106706;1258;98542;-77
2023/11/28 09:51:00;;;;;;;59.60;27.00;;;;;;;-0.90;100.00;98984.42;105357;1264;97985;-77
2023/11/28 09:53:48;;;;;;;53.90;26.00;;;;;;;-0.88;100.00;98979.02;105408;1259;98460;-77
2023/11/28 09:56:34;;;;;;;56.30;26.30;;;;;;;-0.90;100.00;98979.30;105233;1264;101500;-77
2023/11/28 09:59:21;;;;;;;60.60;29.10;;;;;;;-0.88;100.00;98973.77;105528;1259;100512;-77
2023/11/28 10:02:07;;;;;;;58.30;27.10;;;;;;;-0.85;100.00;98970.33;105325;1259;97973;-77
2023/11/28 10:04:53;;;;;;;57.50;29.00;;;;;;;-0.83;100.00;98963.75;105365;1260;98412;-76
2023/11/28 10:07:42;;;;;;;64.30;29.20;;;;;;;-0.79;100.00;98962.85;105128;1262;100391;-77
2023/11/28 10:10:29;;;;;;;55.70;29.10;;;;;;;-0.78;99.97;98960.46;105358;1264;101359;-76
2023/11/28 10:13:14;;;;;;;54.40;27.00;;;;;;;-0.77;99.97;98962.96;105395;1263;99767;-76
2023/11/28 10:16:01;;;;;;;58.00;28.60;;;;;;;-0.73;100.00;98959.10;105437;1258;98718;-76
2023/11/28 10:18:47;;;;;;;59.30;29.40;;;;;;;-0.73;99.78;98960.86;105331;1258;97909;-77
2023/11/28 10:21:33;;;;;;;66.70;29.80;;;;;;;-0.75;99.71;98958.80;105415;1260;97963;-78
2023/11/28 10:24:21;;;;;;;59.00;28.40;;;;;;;-0.75;99.91;98952.83;105374;1259;102414;-78
2023/11/28 10:27:06;;;;;;;60.60;27.80;;;;;;;-0.74;99.82;98950.46;105324;1259;100412;-77
2023/11/28 10:29:53;;;;;;;65.20;29.30;;;;;;;-0.77;99.57;98952.29;105379;1264;99013;-77
2023/11/28 10:32:39;;;;;;;63.00;28.40;;;;;;;-0.78;99.43;98947.70;105300;1259;99113;-78
2023/11/28 10:35:37;;;;;;;57.50;29.30;;;;;;;-0.77;99.73;98946.77;105362;1264;98495;-76
2023/11/28 10:38:23;;;;;;;54.80;26.90;;;;;;;-0.77;99.75;98936.91;105434;1264;102197;-77
2023/11/28 10:41:09;;;;;;;67.10;29.40;;;;;;;-0.75;99.78;98934.98;105424;1264;99079;-77
2023/11/28 10:43:54;;;;;;;58.70;27.70;;;;;;;-0.72;99.64;98931.96;105265;1264;98111;-77
2023/11/28 10:46:40;;;;;;;62.10;28.40;;;;;;;-0.71;99.53;98927.90;105388;1262;97977;-77
2023/11/28 10:49:25;;;;;;;55.40;28.20;;;;;;;-0.69;99.52;98923.67;105404;1259;97995;-77
2023/11/28 10:52:12;;;;;;;57.20;28.40;;;;;;;-0.72;99.10;98923.04;105379;1260;101558;-77
2023/11/28 10:55:05;;;;;;;60.50;28.50;;;;;;;-0.75;98.95;98912.87;105231;1262;99146;-77
2023/11/28 10:58:02;;;;;;;59.80;29.90;;;;;;;-0.80;98.74;98910.03;105536;1263;97960;-78
2023/11/28 11:00:52;;;;;;;57.60;28.30;;;;;;;-0.83;98.83;98913.84;105359;1264;97980;-76
2023/11/28 11:03:39;;;;;;;55.60;27.70;;;;;;;-0.84;98.91;98914.49;105208;1264;97965;-77
2023/11/28 11:06:24;;;;;;;58.40;29.50;;;;;;;-0.86;98.69;98913.98;105280;1262;102700;-76
2023/11/28 11:09:11;;;;;;;62.20;30.20;;;;;;;-0.94;98.38;98912.65;105320;1262;100104;-77
2023/11/28 11:11:59;;;;;;;67.30;31.80;;;;;;;-1.02;98.37;98915.46;105313;1259;97996;-77
2023/11/28 11:14:55;;;;;;;55.20;27.50;;;;;;;-1.07;98.48;98915.07;105354;1263;97985;-78
2023/11/28 11:17:44;;;;;;;64.90;30.40;;;;;;;-1.13;98.52;98910.91;105263;1264;98419;-76
2023/11/28 11:20:34;;;;;;;55.70;28.20;;;;;;;-1.17;98.62;98909.23;105368;1263;103202;-78
2023/11/28 11:23:23;;;;;;;61.00;29.60;;;;;;;-1.17;98.84;98907.21;106376;1263;99072;-77
2023/11/28 11:26:08;;;;;;;59.90;28.20;;;;;;;-1.15;99.08;98906.73;105294;1263;98502;-78
2023/11/28 11:28:57;;;;;;;60.40;29.20;;;;;;;-1.10;99.26;98911.20;105315;1259;97896;-77
2023/11/28 11:31:42;;;;;;;64.00;30.20;;;;;;;-1.07;99.28;98908.73;105449;1259;98098;-78
2023/11/28 11:34:46;;;;;;;51.80;25.90;;;;;;;-1.06;99.01;98905.50;105209;1263;101269;-76
2023/11/28 11:37:33;;;;;;;51.10;25.40;;;;;;;-1.08;98.80;98906.98;105503;1260;99099;-78
2023/11/28 11:40:19;;;;;;;59.00;28.90;;;;;;;-1.09;98.94;98902.27;105136;1263;97929;-77
2023/11/28 11:43:05;;;;;;;63.50;30.30;;;;;;;-1.07;98.86;98895.45;105152;1258;97998;-76
2023/11/28 11:45:51;;;;;;;59.80;29.40;;;;;;;-1.06;99.07;98894.84;105093;1259;99664;-77
2023/11/28 11:48:39;;;;;;;57.10;28.10;;;;;;;-1.02;99.29;98899.11;105229;1263;110329;-83
2023/11/28 11:51:25;;;;;;;58.70;28.20;;;;;;;-1.01;99.12;98902.88;105902;1264;99894;-84
2023/11/28 11:54:10;;;;;;;62.90;30.80;;;;;;;-1.00;99.16;98899.29;106190;1259;99096;-81
2023/11/28 11:56:56;;;;;;;57.90;28.80;;;;;;;-0.99;99.21;98891.77;106517;1262;97969;-83
2023/11/28 11:59:42;;;;;;;57.00;28.10;;;;;;;-0.98;99.08;98896.25;106111;1258;98024;-77
2023/11/28 12:02:37;;;;;;;56.20;27.70;;;;;;;-1.01;98.93;98896.55;105329;1263;110278;-77
2023/11/28 12:05:23;;;;;;;55.10;26.50;;;;;;;-1.02;99.04;98898.98;105252;1263;99076;-77
2023/11/28 12:08:09;;;;;;;54.30;27.40;;;;;;;-1.01;98.97;98902.23;105341;1263;98765;-77
2023/11/28 12:11:08;;;;;;;54.20;27.20;;;;;;;-0.99;98.89;98901.63;105397;1259;97969;-77
2023/11/28 12:13:55;;;;;;;57.40;28.50;;;;;;;-0.98;98.79;98906.13;105335;1259;99668;-77
2023/11/28 12:16:47;;;;;;;56.60;27.90;;;;;;;-0.97;98.97;98907.20;105382;1263;101382;-77
2023/11/28 12:19:33;;;;;;;58.20;27.70;;;;;;;-0.95;99.00;98912.42;105162;1263;99090;-77
2023/11/28 12:22:19;;;;;;;60.20;29.30;;;;;;;-0.94;98.93;98912.20;105143;1264;98997;-79
2023/11/28 12:25:05;;;;;;;53.70;26.30;;;;;;;-0.92;99.03;98917.39;105285;1263;97859;-77
2023/11/28 12:27:51;;;;;;;54.60;28.60;;;;;;;-0.89;99.06;98921.13;105546;1262;98490;-83
2023/11/28 12:30:37;;;;;;;57.10;27.20;;;;;;;-0.85;98.89;98920.92;106200;1259;101763;-81
2023/11/28 12:33:23;;;;;;;54.10;27.50;;;;;;;-0.82;98.90;98919.82;106441;1258;100056;-81